Greenville, DE (19884)

7:26 AM EDT on September 03, 2015 (GMT -0400)
Port of Wilmington | | Change Station
CLOSE
Current Station
Personal Weather Station
Location: Wilmington, DE
Elevation: 30 ft
Nearby Weather Stations

Elev 30 ft 39.72 °N, 75.53 °W | Updated 13 minutes ago

Clear
Clear
74.2 °F
Feels Like 74 °F
N
1.0
Wind Variable Wind from North
Gusts 4.0 mph

Today
High -- | Low -- °F
--% Chance of Precip.
Yesterday
High -- | Low -- °F
Precip. -- in
6:31 AM 7:30 PM
Waning Gibbous, 71% visible
Pressure 29.90 in
Visibility 4.0 miles
Clouds Mostly Cloudy 5500 ft
Heat Index 74 °F
Dew Point 69 °F
Humidity 84%
Rainfall 0.00 in
Snow Depth Not available.
UV 0 out of 12
Pollen 10.10 out of 12
Air Quality Not available.
Flu Activity Not available.
METAR KILG 031051Z 34003KT 4SM HZ BKN055 22/19 A2990 RMK AO2 SLP124 T02170189 $
Pressure 29.90 in
Visibility 4.0 miles
Clouds Mostly Cloudy 5500 ft
Heat Index 74 °F
Dew Point 69 °F
Humidity 84%
Rainfall 0.00 in
Snow Depth Not available.
UV 0 out of 12
Pollen 10.10 out of 12
Air Quality Not available.
Flu Activity Not available.
METAR KILG 031051Z 34003KT 4SM HZ BKN055 22/19 A2990 RMK AO2 SLP124 T02170189 $

10-Day Weather Forecast

×

Almanac

Astronomy

Sep. 03, 2015 Rise Set
Actual Time
Civil Twilight
Nautical Twilight
Astronomical Twilight
Moon
Length of Visible Light
Length of Day
Tomorrow will be .
, % of the Moon is Illuminated

Today's Extremes

State Highs State Lows

Community

WunderPhotos

Upload Photos

1,851,933 photos uploaded!

WunderBlogs® & News

Nearby

Air Quality

  Air Quality AQ Index Pollutant
Not available.

Snow Depth

Station Depth Elevation

Earthquake Activity

City Distance Mag. Time & Date
Minimum magnitude displayed is 2.5.

Coastal Water Temperatures

Place Temperature

Stations

Nearby Weather Stations

Station Location Temp. Windchill Dew Point Humidity Wind Precip. Elev Updated Type